Time;durP1;ratioP1;P1;durP2;ratioP2;P2;SDS_P1;SDS_P2;PMS_P1;PMS_P2;Temp;Humidity;BMP_temperature;BMP_pressure;BME280_temperature;BME280_humidity;BME280_pressure;Samples;Min_cycle;Max_cycle;Signal;HPM_P1;HPM_P2
2023/09/16 00:00:35;;;;;;;12.63;8.57;;;19.40;99.90;;;;;;5054972;28;20472;-60
2023/09/16 00:03:02;;;;;;;9.27;7.85;;;19.30;99.90;;;;;;5065468;28;20031;-59
2023/09/16 00:05:28;;;;;;;10.90;7.57;;;19.30;99.90;;;;;;5073972;28;20446;-60
2023/09/16 00:07:53;;;;;;;8.57;7.30;;;19.30;99.90;;;;;;5074861;28;20062;-60
2023/09/16 00:10:19;;;;;;;10.93;8.10;;;19.20;99.90;;;;;;5074645;28;20075;-58
2023/09/16 00:12:44;;;;;;;9.52;7.75;;;19.30;99.90;;;;;;5073643;28;20056;-59
2023/09/16 00:15:10;;;;;;;10.25;8.15;;;19.20;99.90;;;;;;5064392;28;20040;-59
2023/09/16 00:17:36;;;;;;;8.93;8.02;;;19.20;99.90;;;;;;5059230;28;20504;-59
2023/09/16 00:20:11;;;;;;;9.25;8.02;;;19.20;99.90;;;;;;5056475;28;20033;-60
2023/09/16 00:22:37;;;;;;;11.50;8.10;;;19.10;99.90;;;;;;5063296;28;20110;-57
2023/09/16 00:25:04;;;;;;;10.95;8.82;;;19.10;99.90;;;;;;5065013;28;20116;-59
2023/09/16 00:27:29;;;;;;;9.75;8.32;;;19.10;99.90;;;;;;5054472;28;20025;-58
2023/09/16 00:29:55;;;;;;;8.85;7.95;;;19.00;99.90;;;;;;5056022;28;20029;-59
2023/09/16 00:32:21;;;;;;;10.20;7.90;;;19.10;99.90;;;;;;5064420;28;20031;-59
2023/09/16 00:34:48;;;;;;;10.48;8.30;;;19.10;99.90;;;;;;5074257;28;20229;-59
2023/09/16 00:37:14;;;;;;;9.50;7.80;;;19.00;99.90;;;;;;5074004;28;20044;-58
2023/09/16 00:39:39;;;;;;;10.18;7.80;;;19.00;99.90;;;;;;5057864;28;20155;-60
2023/09/16 00:42:05;;;;;;;10.60;8.50;;;18.90;99.90;;;;;;5056180;28;20024;-59
2023/09/16 00:44:30;;;;;;;11.43;8.85;;;18.90;99.90;;;;;;5055434;28;20510;-58
2023/09/16 00:46:56;;;;;;;9.60;8.25;;;18.90;99.90;;;;;;5054057;28;20539;-60
2023/09/16 00:49:22;;;;;;;10.27;7.88;;;18.90;99.90;;;;;;5054304;28;20035;-61
2023/09/16 00:51:47;;;;;;;9.85;8.27;;;18.90;99.90;;;;;;5054868;28;20033;-56
2023/09/16 00:54:14;;;;;;;10.10;7.97;;;18.90;99.90;;;;;;5073538;28;20375;-61
2023/09/16 00:56:40;;;;;;;9.52;7.70;;;18.90;99.90;;;;;;5073391;28;20031;-58
2023/09/16 00:59:06;;;;;;;10.88;9.20;;;18.80;99.90;;;;;;5073512;28;20028;-59
2023/09/16 01:01:31;;;;;;;10.32;8.35;;;18.80;99.90;;;;;;5064086;28;20029;-60
2023/09/16 01:03:58;;;;;;;9.57;8.38;;;18.80;99.90;;;;;;5054574;28;20556;-59
2023/09/16 01:06:23;;;;;;;10.40;8.23;;;18.90;99.90;;;;;;5065056;28;20379;-58
2023/09/16 01:08:49;;;;;;;10.48;8.27;;;18.90;99.90;;;;;;5073934;28;20035;-59
2023/09/16 01:11:15;;;;;;;10.40;8.20;;;18.90;99.90;;;;;;5074000;28;20036;-59
2023/09/16 01:13:41;;;;;;;10.45;8.68;;;18.90;99.90;;;;;;5062673;28;20063;-59
2023/09/16 01:16:25;;;;;;;8.88;7.88;;;18.80;99.90;;;;;;5071145;28;20028;-59
2023/09/16 01:18:59;;;;;;;10.77;8.52;;;18.80;99.90;;;;;;5072852;28;20458;-58
2023/09/16 01:21:25;;;;;;;10.88;8.63;;;18.80;99.90;;;;;;5069320;28;20066;-56
2023/09/16 01:24:19;;;;;;;12.52;8.57;;;18.80;99.90;;;;;;5060028;28;20406;-58
2023/09/16 01:26:46;;;;;;;12.77;9.10;;;18.80;99.90;;;;;;5055116;28;20448;-57
2023/09/16 01:29:13;;;;;;;10.23;8.30;;;18.80;99.90;;;;;;5053826;28;20048;-54
2023/09/16 01:31:39;;;;;;;10.82;8.75;;;19.00;99.90;;;;;;5053147;28;20025;-56
2023/09/16 01:34:12;;;;;;;12.65;9.27;;;19.00;99.90;;;;;;5053217;28;20029;-58
2023/09/16 01:36:39;;;;;;;10.27;9.15;;;19.00;99.90;;;;;;5052876;28;20021;-57
2023/09/16 01:39:08;;;;;;;12.80;9.02;;;18.90;99.90;;;;;;5054154;28;20395;-57
2023/09/16 01:41:34;;;;;;;11.75;8.35;;;18.80;99.90;;;;;;5052929;28;20070;-59
2023/09/16 01:44:02;;;;;;;13.45;8.77;;;18.70;99.90;;;;;;5069125;28;20028;-57
2023/09/16 01:46:28;;;;;;;13.95;9.70;;;18.70;99.90;;;;;;5073215;28;20031;-57
2023/09/16 01:48:53;;;;;;;11.23;9.95;;;19.00;99.90;;;;;;5072991;28;20103;-60
2023/09/16 01:51:19;;;;;;;12.10;8.55;;;18.90;99.90;;;;;;5072796;28;20032;-60
2023/09/16 01:53:45;;;;;;;11.15;8.07;;;18.80;99.90;;;;;;5090463;28;20432;-59
2023/09/16 01:56:10;;;;;;;10.80;7.75;;;18.70;99.90;;;;;;5076332;28;20033;-56
2023/09/16 01:58:36;;;;;;;12.07;8.80;;;18.70;99.90;;;;;;5053285;28;20033;-61
2023/09/16 02:01:08;;;;;;;10.55;8.57;;;18.60;99.90;;;;;;5053141;28;20442;-59
2023/09/16 02:03:33;;;;;;;11.40;9.15;;;18.50;99.90;;;;;;5064737;28;20028;-56
2023/09/16 02:05:59;;;;;;;9.70;8.60;;;18.50;99.90;;;;;;5072741;28;20070;-55
2023/09/16 02:08:25;;;;;;;11.68;8.60;;;18.60;99.90;;;;;;5072772;28;20099;-59
2023/09/16 02:10:50;;;;;;;10.63;8.55;;;18.70;99.90;;;;;;5073079;28;20060;-58
2023/09/16 02:13:16;;;;;;;10.20;8.32;;;18.60;99.90;;;;;;5072740;28;20492;-56
2023/09/16 02:15:42;;;;;;;14.10;9.30;;;18.80;99.90;;;;;;5073184;28;20127;-54
2023/09/16 02:18:08;;;;;;;13.43;9.02;;;18.80;99.90;;;;;;5072863;28;20294;-58
2023/09/16 02:20:33;;;;;;;10.88;8.70;;;18.70;99.90;;;;;;5072346;28;20071;-57
2023/09/16 02:23:01;;;;;;;11.38;9.27;;;18.60;99.90;;;;;;5070618;28;20394;-59
2023/09/16 02:25:26;;;;;;;12.38;9.60;;;18.50;99.90;;;;;;5052851;28;20047;-57
2023/09/16 02:27:52;;;;;;;11.47;8.93;;;18.60;99.90;;;;;;5052637;28;20479;-56
2023/09/16 02:30:17;;;;;;;12.07;8.87;;;18.40;99.90;;;;;;5056680;28;20255;-55
2023/09/16 02:32:43;;;;;;;12.60;9.30;;;18.30;99.90;;;;;;5057308;28;20321;-57
2023/09/16 02:35:08;;;;;;;13.02;9.40;;;18.50;99.90;;;;;;5057810;28;20033;-52
2023/09/16 02:37:34;;;;;;;11.88;9.35;;;18.40;99.90;;;;;;5057032;28;20029;-54
2023/09/16 02:39:59;;;;;;;12.70;9.40;;;18.40;99.90;;;;;;5057392;28;20411;-58
2023/09/16 02:42:25;;;;;;;13.23;10.32;;;18.20;99.90;;;;;;5058843;28;20256;-58
2023/09/16 02:44:51;;;;;;;12.50;8.82;;;18.10;99.90;;;;;;5077324;28;20043;-53
2023/09/16 02:47:16;;;;;;;12.57;10.13;;;18.00;99.90;;;;;;5077492;28;20517;-59
2023/09/16 02:49:42;;;;;;;11.68;8.52;;;18.00;99.90;;;;;;5077118;28;20475;-55
2023/09/16 02:52:07;;;;;;;11.18;9.10;;;18.00;99.90;;;;;;5080692;28;20027;-57
2023/09/16 02:54:33;;;;;;;11.82;9.10;;;18.20;99.90;;;;;;5063353;28;20033;-60
2023/09/16 02:56:58;;;;;;;13.73;8.82;;;18.00;99.90;;;;;;5056613;28;20033;-60
2023/09/16 02:59:24;;;;;;;11.30;8.95;;;17.90;99.90;;;;;;5056382;28;20063;-59
2023/09/16 03:01:49;;;;;;;11.30;8.68;;;17.80;99.90;;;;;;5056324;28;20021;-61
2023/09/16 03:04:15;;;;;;;12.82;8.73;;;17.90;99.90;;;;;;5072928;28;20032;-59
2023/09/16 03:06:40;;;;;;;14.90;9.25;;;18.00;99.90;;;;;;5078336;28;20039;-58
2023/09/16 03:09:06;;;;;;;8.53;7.50;;;18.00;99.90;;;;;;5078875;28;20037;-58
2023/09/16 03:11:31;;;;;;;10.77;8.33;;;17.90;99.90;;;;;;5076534;28;20258;-59
2023/09/16 03:13:57;;;;;;;10.70;8.75;;;17.80;99.90;;;;;;5076167;28;20748;-58
2023/09/16 03:16:23;;;;;;;10.00;7.97;;;17.80;99.90;;;;;;5075925;28;20043;-58
2023/09/16 03:18:50;;;;;;;9.88;8.55;;;17.80;99.90;;;;;;5076179;28;20036;-59
2023/09/16 03:21:16;;;;;;;10.95;7.95;;;17.70;99.90;;;;;;5075654;28;20388;-58
2023/09/16 03:23:42;;;;;;;;;;;17.70;99.90;;;;;;5081185;28;20037;-57
2023/09/16 03:26:10;;;;;;;9.30;8.15;;;17.70;99.90;;;;;;5076553;28;19904;-59
2023/09/16 03:28:37;;;;;;;12.00;8.68;;;17.90;99.90;;;;;;5075728;28;20028;-59
2023/09/16 03:31:03;;;;;;;9.75;8.52;;;17.90;99.90;;;;;;5075624;28;20021;-59
2023/09/16 03:33:29;;;;;;;14.77;8.80;;;17.80;99.90;;;;;;5057511;28;20130;-59
2023/09/16 03:35:54;;;;;;;10.90;8.40;;;17.80;99.90;;;;;;5075369;28;20086;-60
2023/09/16 03:38:20;;;;;;;8.63;7.72;;;17.70;99.90;;;;;;5065778;28;20041;-58
2023/09/16 03:40:45;;;;;;;9.68;8.23;;;17.70;99.90;;;;;;5054211;28;20029;-60
2023/09/16 03:43:11;;;;;;;10.10;7.68;;;17.70;99.90;;;;;;5061479;28;20024;-58
2023/09/16 03:45:36;;;;;;;12.98;8.20;;;17.70;99.90;;;;;;5075522;28;20472;-58
2023/09/16 03:48:02;;;;;;;10.50;8.52;;;17.70;99.90;;;;;;5075461;28;20024;-60
2023/09/16 03:50:28;;;;;;;10.05;8.52;;;17.60;99.90;;;;;;5075725;28;20577;-60
2023/09/16 03:52:53;;;;;;;12.30;9.15;;;17.60;99.90;;;;;;5086080;28;20115;-60
2023/09/16 03:55:19;;;;;;;9.68;8.18;;;17.60;99.90;;;;;;5092387;28;20048;-59
2023/09/16 03:57:45;;;;;;;11.35;8.25;;;17.60;99.90;;;;;;5052685;28;20059;-59
2023/09/16 04:00:11;;;;;;;9.27;8.15;;;17.60;99.90;;;;;;5055333;28;20032;-59
2023/09/16 04:02:38;;;;;;;10.55;8.10;;;17.60;99.90;;;;;;5056056;28;20399;-60
2023/09/16 04:05:05;;;;;;;9.95;8.00;;;17.60;99.90;;;;;;5075052;28;20100;-58
2023/09/16 04:07:31;;;;;;;9.35;8.07;;;17.60;99.90;;;;;;5075510;28;20082;-60
2023/09/16 04:09:56;;;;;;;12.77;8.85;;;17.60;99.90;;;;;;5076037;28;20426;-59
2023/09/16 04:12:22;;;;;;;9.47;8.30;;;17.60;99.90;;;;;;5075235;28;20037;-59
2023/09/16 04:14:47;;;;;;;10.27;8.83;;;17.60;99.90;;;;;;5075419;28;20262;-60
2023/09/16 04:17:13;;;;;;;10.55;8.65;;;17.60;99.90;;;;;;5075114;28;20538;-58
2023/09/16 04:19:38;;;;;;;10.82;8.40;;;17.50;99.90;;;;;;5074454;28;20040;-59
2023/09/16 04:22:04;;;;;;;11.23;8.23;;;17.50;99.90;;;;;;5074985;28;20065;-59
2023/09/16 04:24:29;;;;;;;9.68;8.52;;;17.50;99.90;;;;;;5059691;28;20500;-60
2023/09/16 04:26:55;;;;;;;10.20;8.33;;;17.50;99.90;;;;;;5058820;28;20032;-59
2023/09/16 04:29:20;;;;;;;12.55;8.93;;;17.50;99.90;;;;;;5061746;28;20032;-58
2023/09/16 04:31:46;;;;;;;10.30;8.37;;;17.40;99.90;;;;;;5057110;28;20029;-59
2023/09/16 04:34:12;;;;;;;10.63;8.20;;;17.40;99.90;;;;;;5054522;28;20267;-58
2023/09/16 04:36:39;;;;;;;11.90;8.05;;;17.40;99.90;;;;;;5054212;28;20606;-58
2023/09/16 04:39:04;;;;;;;10.75;7.88;;;17.40;99.90;;;;;;5064684;28;20161;-60
2023/09/16 04:41:31;;;;;;;10.23;8.20;;;17.40;99.90;;;;;;5074644;28;20025;-59
2023/09/16 04:43:57;;;;;;;13.85;8.85;;;17.40;99.90;;;;;;5074552;28;20029;-59
2023/09/16 04:46:23;;;;;;;10.30;8.52;;;17.40;99.90;;;;;;5074285;28;20063;-59
2023/09/16 04:48:48;;;;;;;11.43;8.93;;;17.30;99.90;;;;;;5063353;28;20029;-59
2023/09/16 04:51:14;;;;;;;9.45;8.10;;;17.30;99.90;;;;;;5053944;28;20029;-58
2023/09/16 04:53:40;;;;;;;8.73;7.82;;;17.30;99.90;;;;;;5087647;28;20044;-58
2023/09/16 04:56:05;;;;;;;10.57;8.40;;;17.20;99.90;;;;;;5087839;28;20029;-59
2023/09/16 04:58:31;;;;;;;9.70;8.68;;;17.20;99.90;;;;;;5054365;28;20035;-58
2023/09/16 05:01:00;;;;;;;11.68;8.65;;;17.10;99.90;;;;;;5070098;28;20024;-57
2023/09/16 05:03:26;;;;;;;11.73;9.48;;;17.10;99.90;;;;;;5073782;28;20024;-54
2023/09/16 05:05:52;;;;;;;10.35;8.35;;;17.10;99.90;;;;;;5084486;28;20351;-58
2023/09/16 05:08:18;;;;;;;12.63;9.13;;;17.10;99.90;;;;;;5075853;28;20031;-59
2023/09/16 05:10:44;;;;;;;10.65;8.48;;;17.00;99.90;;;;;;5094014;28;20032;-60
2023/09/16 05:13:09;;;;;;;11.38;10.15;;;17.10;99.90;;;;;;5088429;28;20390;-61
2023/09/16 05:15:35;;;;;;;11.98;9.27;;;17.10;99.90;;;;;;5074263;28;20033;-61
2023/09/16 05:18:00;;;;;;;12.30;9.50;;;17.00;99.90;;;;;;5074108;28;20087;-59
2023/09/16 05:20:26;;;;;;;12.48;9.68;;;17.00;99.90;;;;;;5074013;28;20024;-61
2023/09/16 05:22:52;;;;;;;13.70;10.60;;;17.00;99.90;;;;;;5074171;28;20040;-60
2023/09/16 05:25:17;;;;;;;17.20;9.20;;;17.00;99.90;;;;;;5075554;28;20024;-60
2023/09/16 05:27:43;;;;;;;11.87;9.53;;;17.00;99.90;;;;;;5073467;28;20029;-59
2023/09/16 05:30:09;;;;;;;10.50;9.15;;;17.00;99.90;;;;;;5073153;28;20033;-57
2023/09/16 05:32:35;;;;;;;11.18;9.45;;;17.00;99.90;;;;;;5069447;28;20112;-60
2023/09/16 05:35:00;;;;;;;12.65;8.75;;;17.00;99.90;;;;;;5063379;28;20107;-60
2023/09/16 05:37:27;;;;;;;14.57;11.20;;;17.00;99.90;;;;;;5073641;28;20112;-58
2023/09/16 05:39:52;;;;;;;;;;;17.00;99.90;;;;;;5056214;28;20492;-60
2023/09/16 05:42:18;;;;;;;12.15;9.07;;;17.00;99.90;;;;;;5073250;28;19985;-60
2023/09/16 05:44:44;;;;;;;11.60;8.82;;;17.00;99.90;;;;;;5066920;28;20360;-59
2023/09/16 05:47:09;;;;;;;10.50;8.75;;;17.00;99.90;;;;;;5057212;28;20113;-60
2023/09/16 05:49:35;;;;;;;12.75;10.02;;;17.00;99.90;;;;;;5035659;28;20061;-61
2023/09/16 05:52:00;;;;;;;10.77;9.33;;;17.00;99.90;;;;;;5053201;28;20036;-61
2023/09/16 05:54:26;;;;;;;11.63;9.63;;;17.00;99.90;;;;;;5053109;28;20283;-61
2023/09/16 05:56:52;;;;;;;;;;;17.00;99.90;;;;;;5053874;28;20036;-63
2023/09/16 05:59:17;;;;;;;13.00;9.80;;;17.00;99.90;;;;;;5053247;28;19909;-60
2023/09/16 06:01:43;;;;;;;12.10;8.90;;;17.00;99.90;;;;;;5065674;28;20016;-61
2023/09/16 06:04:09;;;;;;;10.85;9.20;;;17.00;99.90;;;;;;5072459;28;20271;-61
2023/09/16 06:06:36;;;;;;;12.25;9.75;;;17.10;99.90;;;;;;5042247;28;20582;-61
2023/09/16 06:09:03;;;;;;;12.05;8.93;;;17.20;99.90;;;;;;5066729;28;20021;-61
2023/09/16 06:11:29;;;;;;;10.95;8.75;;;17.10;99.90;;;;;;5063614;28;20021;-60
2023/09/16 06:13:55;;;;;;;11.63;9.65;;;17.10;99.90;;;;;;5054458;28;20365;-61
2023/09/16 06:16:21;;;;;;;14.05;9.82;;;17.00;99.90;;;;;;5063401;28;20090;-62
2023/09/16 06:18:46;;;;;;;12.93;9.43;;;17.10;99.90;;;;;;5058362;28;20032;-61
2023/09/16 06:21:12;;;;;;;10.95;9.40;;;17.10;99.90;;;;;;5070056;28;20039;-62
2023/09/16 06:23:38;;;;;;;11.23;9.50;;;17.20;99.90;;;;;;5067766;28;20025;-61
2023/09/16 06:26:03;;;;;;;10.13;8.93;;;17.20;99.90;;;;;;5055498;28;20078;-61
2023/09/16 06:28:29;;;;;;;11.90;9.20;;;17.20;99.90;;;;;;5052622;28;20407;-61
2023/09/16 06:30:55;;;;;;;11.55;9.57;;;17.30;99.90;;;;;;5045160;28;20398;-61
2023/09/16 06:33:20;;;;;;;10.67;9.03;;;17.30;99.90;;;;;;5054403;28;20056;-62
2023/09/16 06:35:46;;;;;;;13.00;9.75;;;17.30;99.90;;;;;;5058495;28;20354;-62
2023/09/16 06:38:11;;;;;;;14.55;8.63;;;17.40;99.90;;;;;;5072859;28;20025;-60
2023/09/16 06:40:38;;;;;;;11.90;9.20;;;17.40;99.90;;;;;;5080853;28;20013;-60
2023/09/16 06:43:03;;;;;;;;;;;17.50;99.90;;;;;;5093214;28;20262;-60
2023/09/16 06:45:28;;;;;;;11.68;9.60;;;17.60;99.90;;;;;;5092194;28;20270;-57
2023/09/16 06:47:57;;;;;;;9.82;8.45;;;17.60;99.90;;;;;;5093020;28;20028;-60
2023/09/16 06:50:23;;;;;;;14.30;8.98;;;17.70;99.90;;;;;;5084697;28;20402;-64
2023/09/16 06:52:48;;;;;;;11.25;8.63;;;17.80;99.90;;;;;;5052456;28;20025;-64
2023/09/16 06:55:14;;;;;;;16.93;7.70;;;17.90;99.90;;;;;;5052562;28;20032;-63
2023/09/16 06:57:39;;;;;;;9.85;8.07;;;17.90;99.90;;;;;;5052763;28;20255;-62
2023/09/16 07:00:05;;;;;;;15.10;8.83;;;18.00;99.90;;;;;;5051915;28;20430;-62
2023/09/16 07:02:32;;;;;;;11.77;9.15;;;18.00;99.90;;;;;;5071593;28;20263;-62
2023/09/16 07:04:57;;;;;;;;;;;18.00;99.90;;;;;;5073478;28;20482;-62
2023/09/16 07:07:24;;;;;;;12.50;9.00;;;18.10;99.90;;;;;;5072616;28;19944;-64
2023/09/16 07:09:56;;;;;;;12.13;8.70;;;18.10;99.90;;;;;;5072426;28;20060;-62
2023/09/16 07:12:22;;;;;;;11.45;8.90;;;18.20;99.90;;;;;;5072541;28;20033;-63
2023/09/16 07:14:48;;;;;;;10.45;8.75;;;18.30;99.90;;;;;;5072598;28;20063;-62
2023/09/16 07:17:14;;;;;;;10.23;8.50;;;18.40;99.90;;;;;;5080857;28;20056;-61
2023/09/16 07:19:40;;;;;;;11.65;8.52;;;18.50;99.90;;;;;;5096354;28;20031;-62
2023/09/16 07:22:05;;;;;;;11.18;8.68;;;18.60;99.90;;;;;;5061514;28;20375;-61
2023/09/16 07:24:31;;;;;;;11.70;8.68;;;18.70;99.90;;;;;;5096330;28;20035;-61
2023/09/16 07:26:56;;;;;;;9.18;7.88;;;18.80;99.90;;;;;;5067425;28;20399;-61
2023/09/16 07:29:22;;;;;;;9.02;8.07;;;18.80;99.90;;;;;;5075107;28;20026;-59
2023/09/16 07:31:48;;;;;;;12.48;8.57;;;18.80;99.90;;;;;;5076039;28;20113;-61
2023/09/16 07:34:15;;;;;;;9.32;8.35;;;18.90;99.90;;;;;;5076348;28;20032;-62
2023/09/16 07:36:41;;;;;;;12.18;8.88;;;19.00;99.90;;;;;;5067854;28;20033;-59
2023/09/16 07:39:07;;;;;;;11.02;8.23;;;19.00;99.90;;;;;;5057467;28;20056;-63
2023/09/16 07:41:33;;;;;;;11.40;9.60;;;19.20;99.90;;;;;;5057811;28;20060;-60
2023/09/16 07:43:58;;;;;;;8.90;8.00;;;19.30;99.90;;;;;;5055327;28;20033;-59
2023/09/16 07:46:24;;;;;;;9.85;8.18;;;19.30;99.90;;;;;;5056434;28;20083;-62
2023/09/16 07:48:49;;;;;;;11.55;8.07;;;19.40;99.90;;;;;;5055028;28;20029;-62
2023/09/16 07:51:16;;;;;;;11.43;7.97;;;19.40;99.90;;;;;;5055358;28;20511;-61
2023/09/16 07:53:41;;;;;;;8.85;7.57;;;19.50;99.90;;;;;;5073157;28;20029;-61
2023/09/16 07:56:07;;;;;;;9.20;8.20;;;19.50;99.90;;;;;;5073422;28;20488;-63
2023/09/16 07:58:32;;;;;;;9.85;7.70;;;19.60;99.90;;;;;;5073790;28;20515;-60
2023/09/16 08:00:58;;;;;;;8.95;7.80;;;19.70;99.90;;;;;;5078240;28;20359;-62
2023/09/16 08:03:23;;;;;;;9.20;7.65;;;19.80;99.90;;;;;;5094853;28;20480;-62
2023/09/16 08:05:50;;;;;;;8.65;7.70;;;19.80;99.90;;;;;;5095291;28;20030;-65
2023/09/16 08:08:16;;;;;;;;;;;19.90;99.90;;;;;;5093863;28;20028;-62
2023/09/16 08:10:51;;;;;;;9.35;7.47;;;20.00;99.90;;;;;;5094810;28;19911;-63
2023/09/16 08:13:18;;;;;;;9.23;8.27;;;20.10;99.90;;;;;;5093501;28;20020;-64
2023/09/16 08:15:43;;;;;;;10.10;7.93;;;20.30;99.90;;;;;;5095484;28;20030;-63
2023/09/16 08:18:09;;;;;;;9.93;7.93;;;20.40;99.90;;;;;;5095196;28;20024;-63
2023/09/16 08:20:34;;;;;;;9.35;7.90;;;20.60;99.90;;;;;;5094792;28;20024;-62
2023/09/16 08:23:00;;;;;;;8.25;7.07;;;20.70;99.90;;;;;;5094931;28;20062;-64
2023/09/16 08:25:25;;;;;;;8.95;7.30;;;20.70;99.90;;;;;;5094915;28;20020;-63
2023/09/16 08:27:52;;;;;;;9.23;7.47;;;20.60;99.90;;;;;;5093802;28;20064;-62
2023/09/16 08:30:17;;;;;;;;;;;20.70;99.90;;;;;;5095108;28;20026;-63
2023/09/16 08:32:43;;;;;;;9.75;7.22;;;20.80;99.90;;;;;;5094702;28;19986;-63
2023/09/16 08:35:09;;;;;;;8.75;7.32;;;20.90;99.90;;;;;;5094696;28;20020;-63
2023/09/16 08:37:35;;;;;;;8.85;7.32;;;21.10;99.90;;;;;;5094658;28;20440;-62
2023/09/16 08:40:01;;;;;;;7.80;7.00;;;21.70;99.90;;;;;;5094570;28;20092;-64
2023/09/16 08:42:37;;;;;;;7.63;6.43;;;24.00;99.90;;;;;;5094473;28;20586;-63
2023/09/16 08:45:05;;;;;;;9.30;6.95;;;27.60;99.90;;;;;;5094222;28;20024;-64
2023/09/16 08:47:39;;;;;;;7.90;6.07;;;30.50;97.30;;;;;;5094517;28;20032;-62
2023/09/16 08:50:07;;;;;;;8.02;5.63;;;32.90;93.50;;;;;;5094971;28;20081;-65
2023/09/16 08:52:42;;;;;;;10.20;5.55;;;33.90;91.20;;;;;;5092043;28;20020;-64
2023/09/16 08:55:12;;;;;;;9.25;4.90;;;35.50;89.00;;;;;;5065306;28;20047;-65
2023/09/16 08:57:42;;;;;;;5.75;5.03;;;37.10;83.30;;;;;;5061664;28;20031;-65
2023/09/16 09:00:08;;;;;;;7.35;5.22;;;37.60;80.70;;;;;;5059258;28;20029;-60
2023/09/16 09:02:36;;;;;;;6.55;5.38;;;37.80;78.60;;;;;;5053861;28;20029;-64
2023/09/16 09:05:03;;;;;;;6.07;5.47;;;38.80;76.70;;;;;;5053630;28;20017;-64
2023/09/16 09:07:32;;;;;;;5.93;5.38;;;38.90;75.20;;;;;;5054019;28;20112;-62
2023/09/16 09:09:57;;;;;;;6.05;5.55;;;40.10;72.90;;;;;;5053778;28;20057;-63
2023/09/16 09:12:23;;;;;;;5.45;5.05;;;40.90;70.90;;;;;;5055726;28;20036;-64
2023/09/16 09:14:49;;;;;;;5.82;5.32;;;41.50;69.20;;;;;;5072831;28;20029;-65
2023/09/16 09:17:15;;;;;;;5.88;5.38;;;40.90;69.00;;;;;;5054693;28;20036;-65
2023/09/16 09:19:42;;;;;;;6.30;4.80;;;41.30;67.70;;;;;;5070912;28;20032;-59
2023/09/16 09:22:08;;;;;;;6.80;5.35;;;41.30;67.00;;;;;;5070884;28;20021;-59
2023/09/16 09:24:34;;;;;;;6.82;5.50;;;40.70;67.20;;;;;;5073061;28;20044;-64
2023/09/16 09:26:59;;;;;;;5.68;5.25;;;41.10;66.80;;;;;;5074278;28;20024;-63
2023/09/16 09:29:25;;;;;;;5.60;5.15;;;42.00;65.90;;;;;;5073161;28;20046;-63
2023/09/16 09:31:51;;;;;;;6.07;5.22;;;42.10;64.60;;;;;;5073504;28;20398;-64
2023/09/16 09:34:17;;;;;;;5.95;4.78;;;42.20;64.90;;;;;;5073331;28;20016;-65
2023/09/16 09:36:46;;;;;;;6.47;4.60;;;42.30;63.80;;;;;;5073349;28;20021;-58
2023/09/16 09:39:12;;;;;;;5.85;5.20;;;42.40;63.70;;;;;;5072278;28;20386;-67
2023/09/16 09:41:46;;;;;;;6.00;5.50;;;42.60;63.60;;;;;;5073691;28;20482;-64
2023/09/16 09:44:13;;;;;;;6.07;5.45;;;42.40;62.90;;;;;;5088698;28;20024;-67
2023/09/16 09:46:40;;;;;;;5.65;5.15;;;42.20;63.40;;;;;;5093691;28;20107;-64
2023/09/16 09:49:05;;;;;;;5.57;5.07;;;42.30;63.40;;;;;;5093499;28;20478;-64
2023/09/16 09:51:31;;;;;;;5.22;4.75;;;42.10;63.10;;;;;;5093605;28;20034;-64
2023/09/16 09:53:57;;;;;;;5.30;4.78;;;42.00;63.30;;;;;;5093229;28;20024;-65
2023/09/16 09:56:23;;;;;;;5.68;5.07;;;41.70;63.30;;;;;;5093480;28;20024;-64
2023/09/16 09:58:48;;;;;;;6.63;5.15;;;42.00;63.40;;;;;;5093021;28;20024;-65
2023/09/16 10:01:15;;;;;;;5.63;5.22;;;42.70;62.80;;;;;;5093789;28;20028;-65
2023/09/16 10:03:48;;;;;;;6.10;5.60;;;43.00;61.80;;;;;;5092948;28;20039;-65
2023/09/16 10:06:16;;;;;;;5.72;5.18;;;39.70;64.60;;;;;;5093100;28;20028;-65
2023/09/16 10:08:42;;;;;;;5.93;5.35;;;39.80;65.50;;;;;;5093027;28;20032;-64
2023/09/16 10:11:07;;;;;;;6.75;5.30;;;40.60;64.30;;;;;;5094148;28;20059;-65
2023/09/16 10:13:34;;;;;;;6.38;5.10;;;40.90;64.30;;;;;;5082425;28;20021;-65
2023/09/16 10:16:00;;;;;;;5.20;4.63;;;41.50;63.80;;;;;;5072859;28;20428;-66
2023/09/16 10:18:29;;;;;;;5.65;5.07;;;42.10;63.00;;;;;;5073412;28;20099;-66
2023/09/16 10:20:55;;;;;;;5.15;4.75;;;42.30;62.70;;;;;;5073014;28;20025;-65
2023/09/16 10:23:22;;;;;;;5.35;4.93;;;42.30;62.20;;;;;;5072458;28;20387;-65
2023/09/16 10:25:48;;;;;;;5.60;5.13;;;41.80;62.30;;;;;;5072914;28;20017;-66
2023/09/16 10:28:14;;;;;;;5.57;4.93;;;41.90;62.90;;;;;;5068369;28;20083;-67
2023/09/16 10:30:41;;;;;;;4.90;4.50;;;42.50;62.20;;;;;;5063903;28;20021;-68
2023/09/16 10:33:11;;;;;;;5.07;4.68;;;42.80;61.70;;;;;;5052898;28;20032;-67
2023/09/16 10:35:40;;;;;;;5.85;4.65;;;42.60;61.80;;;;;;5067224;28;20090;-64
2023/09/16 10:38:08;;;;;;;6.53;4.72;;;42.10;62.10;;;;;;5072982;28;20029;-65
2023/09/16 10:40:34;;;;;;;5.30;4.53;;;41.90;62.20;;;;;;5073089;28;20025;-69
2023/09/16 10:43:02;;;;;;;7.50;4.60;;;42.20;61.90;;;;;;5078382;28;20036;-67
2023/09/16 10:45:27;;;;;;;9.50;4.75;;;41.60;62.40;;;;;;5093099;28;20012;-68
2023/09/16 10:47:54;;;;;;;5.57;5.07;;;42.00;62.30;;;;;;5092550;28;20539;-69
2023/09/16 10:50:29;;;;;;;5.85;4.95;;;42.00;62.20;;;;;;5094622;28;20016;-68
2023/09/16 10:53:01;;;;;;;5.65;4.80;;;42.00;62.30;;;;;;5082462;28;20045;-62
2023/09/16 10:55:48;;;;;;;6.18;5.07;;;40.50;63.30;;;;;;5076748;28;20028;-62
2023/09/16 10:58:22;;;;;;;6.18;5.68;;;39.40;64.20;;;;;;5075308;28;20027;-63
2023/09/16 11:00:53;;;;;;;5.22;4.72;;;37.60;65.90;;;;;;5075841;28;20167;-63
2023/09/16 11:03:20;;;;;;;5.20;4.70;;;36.20;67.80;;;;;;5076051;28;20029;-62
2023/09/16 11:05:45;;;;;;;6.18;5.38;;;34.80;69.70;;;;;;5075463;28;20020;-62
2023/09/16 11:08:11;;;;;;;5.80;5.28;;;33.70;71.60;;;;;;5075492;28;20040;-62
2023/09/16 11:10:37;;;;;;;5.60;5.05;;;32.60;73.80;;;;;;5075756;28;20498;-62
2023/09/16 11:13:03;;;;;;;7.10;5.20;;;31.80;75.40;;;;;;5094229;28;20331;-62
2023/09/16 11:15:33;;;;;;;5.90;5.30;;;31.30;76.30;;;;;;5096534;28;20107;-61
2023/09/16 11:18:08;;;;;;;8.07;5.50;;;30.80;78.00;;;;;;5095910;28;20016;-64
2023/09/16 11:20:36;;;;;;;6.85;5.30;;;30.50;79.30;;;;;;5096445;28;20107;-62
2023/09/16 11:23:05;;;;;;;9.82;5.93;;;30.60;79.40;;;;;;5095709;28;20554;-62
2023/09/16 11:25:41;;;;;;;4.82;4.22;;;30.70;79.20;;;;;;5096173;28;20470;-62
2023/09/16 11:28:09;;;;;;;7.78;5.28;;;30.50;76.90;;;;;;5095464;28;20047;-62
2023/09/16 11:30:36;;;;;;;5.45;4.90;;;30.20;77.40;;;;;;5088828;28;20044;-62
2023/09/16 11:33:05;;;;;;;4.80;4.25;;;29.80;78.30;;;;;;5075190;28;20101;-64
2023/09/16 11:35:31;;;;;;;4.63;4.10;;;29.60;77.90;;;;;;5075477;28;20147;-62
2023/09/16 11:37:57;;;;;;;5.40;4.65;;;29.20;79.50;;;;;;5068752;28;20489;-63
2023/09/16 11:40:27;;;;;;;4.50;4.10;;;28.70;80.10;;;;;;5071353;28;20033;-62
2023/09/16 11:42:54;;;;;;;4.55;3.95;;;28.50;80.70;;;;;;5067768;28;20017;-62
2023/09/16 11:45:20;;;;;;;6.07;4.28;;;28.50;81.70;;;;;;5072785;28;20139;-63
2023/09/16 11:47:48;;;;;;;6.53;4.78;;;28.60;82.10;;;;;;5069325;28;20052;-63
2023/09/16 11:50:26;;;;;;;6.03;4.88;;;28.70;84.00;;;;;;5058982;28;20974;-62
2023/09/16 11:52:53;;;;;;;5.40;4.90;;;28.80;84.40;;;;;;5063473;28;20480;-64
2023/09/16 11:55:19;;;;;;;4.75;4.35;;;29.10;84.50;;;;;;5063775;28;20025;-62
2023/09/16 11:57:46;;;;;;;7.28;5.05;;;29.10;83.10;;;;;;5074333;28;20507;-62
2023/09/16 12:00:12;;;;;;;5.47;4.97;;;28.90;84.80;;;;;;5062893;28;20034;-63
2023/09/16 12:02:38;;;;;;;8.45;5.50;;;28.60;85.50;;;;;;5073063;28;20359;-62
2023/09/16 12:05:05;;;;;;;4.70;4.30;;;28.80;85.50;;;;;;5070047;28;20339;-64
2023/09/16 12:07:31;;;;;;;4.78;3.90;;;29.10;83.90;;;;;;5065299;28;20039;-66
2023/09/16 12:10:01;;;;;;;5.00;3.65;;;29.40;79.90;;;;;;5058815;28;21540;-65
2023/09/16 12:12:28;;;;;;;5.03;2.88;;;29.30;78.90;;;;;;5064363;28;20052;-64
2023/09/16 12:14:53;;;;;;;3.92;3.53;;;29.30;78.70;;;;;;5060903;28;20033;-65
2023/09/16 12:17:19;;;;;;;4.47;3.05;;;29.20;78.70;;;;;;5049745;28;20074;-64
2023/09/16 12:19:52;;;;;;;4.95;3.40;;;29.30;78.50;;;;;;5060696;28;20468;-65
2023/09/16 12:22:18;;;;;;;4.40;3.25;;;29.30;78.90;;;;;;5070764;28;20111;-63
2023/09/16 12:24:45;;;;;;;4.63;3.15;;;29.40;78.60;;;;;;5070227;28;20036;-64
2023/09/16 12:27:11;;;;;;;5.45;3.50;;;29.20;79.20;;;;;;5073542;28;20032;-64
2023/09/16 12:29:36;;;;;;;4.38;3.30;;;29.10;79.80;;;;;;5057363;28;20060;-65
2023/09/16 12:32:14;;;;;;;5.18;3.75;;;28.80;80.50;;;;;;5064107;28;20028;-65
2023/09/16 12:34:40;;;;;;;4.05;3.65;;;28.70;82.00;;;;;;5063854;28;20379;-65
2023/09/16 12:37:07;;;;;;;3.83;3.50;;;28.70;81.90;;;;;;5069172;28;20016;-67
2023/09/16 12:39:35;;;;;;;4.38;3.60;;;28.60;81.60;;;;;;5064331;28;20077;-65